Time;durP1;ratioP1;P1;durP2;ratioP2;P2;SDS_P1;SDS_P2;PMS_P1;PMS_P2;Temp;Humidity;BMP_temperature;BMP_pressure;BME280_temperature;BME280_humidity;BME280_pressure;Samples;Min_cycle;Max_cycle;Signal;HPM_P1;HPM_P2
2022/01/12 00:02:00;;;;;;;107.55;31.92;;;;;;;4.10;100.00;103487.38;5072659;28;20492;-48
2022/01/12 00:04:25;;;;;;;108.10;33.67;;;;;;;4.07;100.00;103488.38;5068444;28;20028;-50
2022/01/12 00:06:50;;;;;;;111.07;33.92;;;;;;;4.09;100.00;103491.00;5077705;28;20112;-50
2022/01/12 00:09:16;;;;;;;106.05;32.03;;;;;;;4.13;100.00;103481.88;5071663;28;20063;-48
2022/01/12 00:11:41;;;;;;;99.82;31.38;;;;;;;4.17;100.00;103473.69;5071602;28;20114;-49
2022/01/12 00:14:06;;;;;;;108.30;31.85;;;;;;;4.16;100.00;103474.63;5086781;28;20112;-51
2022/01/12 00:16:32;;;;;;;101.95;31.98;;;;;;;4.21;100.00;103469.03;5091758;28;20036;-51
2022/01/12 00:18:58;;;;;;;100.32;31.33;;;;;;;4.23;100.00;103458.31;5092657;28;20020;-52
2022/01/12 00:21:23;;;;;;;106.50;30.15;;;;;;;4.23;100.00;103440.53;5095480;28;20081;-52
2022/01/12 00:23:48;;;;;;;92.72;29.30;;;;;;;4.24;100.00;103446.72;5082251;28;20074;-52
2022/01/12 00:26:37;;;;;;;90.85;28.23;;;;;;;4.20;100.00;103453.16;5059512;28;20115;-51
2022/01/12 00:34:31;;;;;;;83.70;27.27;;;;;;;4.24;100.00;103457.38;5076843;28;20039;-51
2022/01/12 00:36:56;;;;;;;99.18;29.45;;;;;;;4.27;100.00;103470.56;5082121;28;20110;-49
2022/01/12 00:39:22;;;;;;;91.60;28.30;;;;;;;4.23;100.00;103483.16;5077109;28;20032;-50
2022/01/12 00:41:47;;;;;;;89.55;28.90;;;;;;;4.22;100.00;103476.13;5095271;28;20024;-48
2022/01/12 00:44:22;;;;;;;91.32;28.70;;;;;;;4.26;100.00;103480.34;5079207;28;20041;-49
2022/01/12 00:46:49;;;;;;;99.13;30.33;;;;;;;4.24;100.00;103478.69;5056797;28;20028;-48
2022/01/12 00:49:14;;;;;;;88.57;28.80;;;;;;;4.22;100.00;103478.78;5076598;28;20025;-47
2022/01/12 00:51:40;;;;;;;96.53;29.20;;;;;;;4.28;100.00;103478.47;5074826;28;20031;-45
2022/01/12 00:54:08;;;;;;;96.80;27.00;;;;;;;4.31;100.00;103477.47;5088895;28;20031;-45
2022/01/12 00:56:36;;;;;;;95.28;30.63;;;;;;;4.21;100.00;103478.84;5076754;28;20025;-46
2022/01/12 00:59:02;;;;;;;97.95;29.80;;;;;;;4.22;100.00;103472.59;5062479;28;20056;-46
2022/01/12 01:01:27;;;;;;;97.03;29.23;;;;;;;4.20;100.00;103478.00;5056667;28;20032;-46
2022/01/12 01:03:53;;;;;;;95.30;29.38;;;;;;;4.26;100.00;103476.81;5086268;28;20140;-47
2022/01/12 01:06:20;;;;;;;99.45;29.92;;;;;;;4.29;100.00;103469.56;5082894;28;20028;-46
2022/01/12 01:08:48;;;;;;;93.20;28.92;;;;;;;4.36;100.00;103456.78;5074668;28;20024;-46
2022/01/12 01:11:13;;;;;;;98.07;30.20;;;;;;;4.33;100.00;103462.25;5056546;28;20021;-48
2022/01/12 01:13:48;;;;;;;87.55;28.20;;;;;;;4.33;100.00;103456.94;5075519;28;20020;-46
2022/01/12 01:16:26;;;;;;;103.25;32.50;;;;;;;4.31;99.78;103458.81;5084028;28;20119;-45
2022/01/12 01:27:03;;;;;;;108.90;34.40;;;;;;;4.17;100.00;103463.00;5077662;28;20442;-44
2022/01/12 01:29:28;;;;;;;112.05;33.03;;;;;;;4.17;100.00;103460.34;5073573;28;20028;-44
2022/01/12 01:31:54;;;;;;;103.63;32.50;;;;;;;4.20;100.00;103471.81;5075958;28;20433;-44
2022/01/12 01:34:20;;;;;;;111.70;32.95;;;;;;;4.17;100.00;103475.50;5094379;28;20028;-44
2022/01/12 01:36:52;;;;;;;112.25;34.75;;;;;;;4.20;100.00;103477.13;5075057;28;20028;-44
2022/01/12 01:39:20;;;;;;;104.60;33.15;;;;;;;4.26;100.00;103482.16;5094504;28;20491;-44
2022/01/12 01:41:56;;;;;;;110.25;32.30;;;;;;;4.31;100.00;103501.47;5075408;28;20032;-44
2022/01/12 01:53:17;;;;;;;110.75;33.08;;;;;;;4.34;100.00;103519.97;5094215;28;20405;-44
2022/01/12 01:55:21;;;;;;;107.05;31.30;;;;;;;4.50;100.00;103566.28;5091334;28;20081;-45
2022/01/12 01:57:47;;;;;;;106.20;32.30;;;;;;;4.52;100.00;103569.72;5073605;28;20032;-43
2022/01/12 02:00:16;;;;;;;107.78;32.53;;;;;;;4.54;100.00;103570.53;5058049;28;20029;-43
2022/01/12 02:02:44;;;;;;;103.63;33.63;;;;;;;4.56;100.00;103579.31;5075178;28;20039;-43
2022/01/12 02:05:09;;;;;;;101.72;32.40;;;;;;;4.61;100.00;103576.44;5074824;28;20024;-43
2022/01/12 02:07:34;;;;;;;107.85;32.67;;;;;;;4.66;100.00;103576.19;5093710;28;20115;-44
2022/01/12 02:10:00;;;;;;;97.90;30.83;;;;;;;4.66;100.00;103577.06;5075460;28;20025;-43
2022/01/12 02:12:30;;;;;;;109.50;31.95;;;;;;;4.66;100.00;103579.75;5088627;28;20055;-45
2022/01/12 02:14:56;;;;;;;119.65;33.50;;;;;;;4.70;99.65;103577.78;5092590;28;20027;-44
2022/01/12 02:17:28;;;;;;;107.35;33.05;;;;;;;4.73;99.86;103588.28;5086753;28;20033;-44
2022/01/12 02:36:09;;;;;;;123.93;33.20;;;;;;;4.78;99.99;103596.94;5082047;28;20100;-44
2022/01/12 02:41:19;;;;;;;130.75;35.67;;;;;;;4.82;99.97;103603.84;5092661;28;20043;-43
2022/01/12 02:54:41;;;;;;;133.85;35.50;;;;;;;4.82;100.00;103598.50;5092950;28;20035;-44
2022/01/12 02:57:06;;;;;;;130.60;34.40;;;;;;;4.83;100.00;103611.75;5089347;28;20396;-43
2022/01/12 02:59:32;;;;;;;133.52;35.25;;;;;;;4.88;100.00;103600.88;5072430;28;20043;-43
2022/01/12 03:02:25;;;;;;;136.57;35.70;;;;;;;4.86;99.88;103589.41;5089655;28;20034;-43
2022/01/12 03:05:10;;;;;;;151.48;37.45;;;;;;;4.79;99.82;103593.31;5092733;28;20379;-44
2022/01/12 03:07:38;;;;;;;137.88;35.80;;;;;;;4.77;100.00;103585.41;5072288;28;20106;-44
2022/01/12 03:10:04;;;;;;;;;;;;;;;4.79;100.00;103577.28;5072766;28;20020;-43
2022/01/12 03:12:30;;;;;;;151.60;38.22;;;;;;;4.84;100.00;103575.25;5072232;28;19923;-44
2022/01/12 03:14:55;;;;;;;149.88;36.08;;;;;;;4.85;100.00;103577.00;5072276;28;20021;-44
2022/01/12 03:17:21;;;;;;;160.07;37.13;;;;;;;4.89;100.00;103591.03;5092352;28;20031;-44
2022/01/12 03:19:46;;;;;;;159.77;38.67;;;;;;;4.89;100.00;103594.56;5083906;28;20024;-43
2022/01/12 03:22:12;;;;;;;177.55;38.97;;;;;;;4.91;100.00;103607.84;5072463;28;20115;-42
2022/01/12 03:24:38;;;;;;;166.95;36.38;;;;;;;4.89;100.00;103610.59;5074395;28;20085;-46
2022/01/12 03:27:05;;;;;;;146.95;36.53;;;;;;;4.92;100.00;103607.75;5074325;28;20107;-44
2022/01/12 03:29:30;;;;;;;167.95;38.90;;;;;;;4.89;100.00;103607.06;5092705;28;20032;-44
2022/01/12 03:31:57;;;;;;;163.90;38.65;;;;;;;4.86;100.00;103616.09;5090437;28;20024;-43
2022/01/12 03:34:30;;;;;;;159.05;38.50;;;;;;;4.86;100.00;103620.56;5074738;28;20431;-43
2022/01/12 03:39:39;;;;;;;172.00;36.72;;;;;;;4.76;100.00;103625.47;5072373;28;20043;-44
2022/01/12 03:42:04;;;;;;;180.63;36.08;;;;;;;4.75;100.00;103626.44;5054011;28;20024;-43
2022/01/12 03:44:30;;;;;;;170.95;37.63;;;;;;;4.75;100.00;103623.75;5054179;28;20020;-43
2022/01/12 03:46:55;;;;;;;172.48;39.20;;;;;;;4.75;100.00;103621.94;5088994;28;20024;-44
2022/01/12 03:49:21;;;;;;;181.43;37.58;;;;;;;4.77;100.00;103627.22;5074480;28;20111;-44
2022/01/12 03:51:47;;;;;;;167.43;37.22;;;;;;;4.76;100.00;103626.34;5073133;28;20032;-44
2022/01/12 03:54:12;;;;;;;165.43;39.90;;;;;;;4.75;100.00;103629.09;5073466;28;20063;-44
2022/01/12 03:56:38;;;;;;;165.73;38.38;;;;;;;4.75;100.00;103629.09;5082738;28;20382;-44
2022/01/12 03:59:04;;;;;;;168.45;37.30;;;;;;;4.75;100.00;103629.09;5095100;28;20120;-43
2022/01/12 04:01:29;;;;;;;165.43;38.97;;;;;;;4.78;100.00;103621.78;5087302;28;20027;-43
2022/01/12 04:04:03;;;;;;;171.65;40.45;;;;;;;4.77;100.00;103616.56;5074510;28;20480;-44
2022/01/12 04:09:13;;;;;;;157.68;39.03;;;;;;;4.73;100.00;103610.47;5095630;28;20047;-45
2022/01/12 04:11:39;;;;;;;151.63;36.58;;;;;;;4.71;100.00;103611.50;5057036;28;20020;-44
2022/01/12 04:14:04;;;;;;;161.85;38.08;;;;;;;4.68;100.00;103614.31;5075750;28;20017;-44
2022/01/12 04:16:30;;;;;;;161.27;37.35;;;;;;;4.61;99.73;103614.63;5075429;28;20028;-44
2022/01/12 04:18:55;;;;;;;157.65;37.20;;;;;;;4.57;100.00;103615.72;5075424;28;20028;-43
2022/01/12 04:21:27;;;;;;;152.48;37.25;;;;;;;4.53;100.00;103630.16;5081626;28;20039;-43
2022/01/12 04:23:53;;;;;;;168.52;36.75;;;;;;;4.52;100.00;103627.53;5096023;28;20032;-44
2022/01/12 04:26:18;;;;;;;162.73;36.78;;;;;;;4.51;100.00;103632.03;5077395;28;20016;-43
2022/01/12 04:28:44;;;;;;;178.35;38.70;;;;;;;4.50;100.00;103648.06;5095647;28;20020;-45
2022/01/12 04:31:11;;;;;;;155.07;34.50;;;;;;;4.48;100.00;103648.16;5090694;28;20028;-44
2022/01/12 04:33:37;;;;;;;155.13;37.55;;;;;;;4.47;100.00;103657.09;5074901;28;20049;-43
2022/01/12 04:36:05;;;;;;;163.43;37.10;;;;;;;4.43;100.00;103639.53;5082145;28;20038;-44
2022/01/12 04:38:33;;;;;;;153.27;34.80;;;;;;;4.35;100.00;103633.69;5077384;28;20028;-43
2022/01/12 04:40:59;;;;;;;161.75;36.92;;;;;;;4.22;100.00;103629.88;5094723;28;20332;-43
2022/01/12 04:43:25;;;;;;;154.77;35.08;;;;;;;4.12;99.73;103624.09;5095427;28;20042;-44
2022/01/12 04:50:45;;;;;;;151.32;35.15;;;;;;;3.91;100.00;103636.63;5094469;28;20047;-43
2022/01/12 04:53:13;;;;;;;174.48;37.45;;;;;;;3.90;100.00;103640.22;5094969;28;20436;-43
2022/01/12 04:55:38;;;;;;;183.65;41.10;;;;;;;3.86;100.00;103633.28;5095205;28;20031;-43
2022/01/12 04:58:04;;;;;;;183.60;37.80;;;;;;;3.80;100.00;103629.09;5105121;28;20031;-43
2022/01/12 05:00:30;;;;;;;166.00;39.10;;;;;;;3.74;100.00;103630.25;5108354;28;20046;-42
2022/01/12 05:13:38;;;;;;;160.18;37.03;;;;;;;3.43;100.00;103653.84;5094609;28;20397;-43
2022/01/12 05:16:04;;;;;;;162.98;36.50;;;;;;;3.35;100.00;103653.31;5094383;28;20491;-43
2022/01/12 05:18:31;;;;;;;165.32;36.25;;;;;;;3.32;100.00;103656.06;5075312;28;20132;-43
2022/01/12 05:20:57;;;;;;;146.15;35.35;;;;;;;3.24;100.00;103651.97;5080024;28;20059;-43
2022/01/12 05:23:22;;;;;;;144.30;34.78;;;;;;;3.15;100.00;103641.69;5094109;28;20028;-43
2022/01/12 05:25:48;;;;;;;142.07;33.00;;;;;;;3.14;100.00;103650.63;5094357;28;20476;-43
2022/01/12 05:28:14;;;;;;;146.70;33.92;;;;;;;3.07;99.60;103654.47;5078703;28;20036;-43
2022/01/12 05:30:39;;;;;;;147.30;33.78;;;;;;;3.03;100.00;103659.06;5076539;28;20029;-43
2022/01/12 05:33:05;;;;;;;144.50;34.03;;;;;;;3.01;99.66;103670.69;5083718;28;20097;-44
2022/01/12 05:35:33;;;;;;;157.75;35.83;;;;;;;3.00;100.00;103674.25;5093173;28;20464;-43
2022/01/12 05:37:59;;;;;;;144.65;34.55;;;;;;;2.97;99.79;103674.38;5094072;28;20036;-44
2022/01/12 05:40:25;;;;;;;148.65;33.78;;;;;;;2.96;100.00;103678.84;5074175;28;20083;-43
2022/01/12 05:42:52;;;;;;;143.98;34.28;;;;;;;2.93;100.00;103681.63;5056353;28;20460;-43
2022/01/12 05:45:19;;;;;;;137.27;34.55;;;;;;;2.91;100.00;103679.97;5052201;28;20060;-43
2022/01/12 05:50:14;;;;;;;152.63;34.20;;;;;;;2.86;100.00;103683.66;5076275;28;20036;-43
2022/01/12 05:52:40;;;;;;;124.85;32.40;;;;;;;2.84;100.00;103684.66;5055849;28;20469;-42
2022/01/12 05:55:07;;;;;;;140.95;34.60;;;;;;;2.78;100.00;103690.22;5084699;28;20087;-43
2022/01/12 05:57:34;;;;;;;132.25;34.05;;;;;;;2.75;100.00;103691.22;5075906;28;20020;-42
2022/01/12 06:00:00;;;;;;;148.15;36.67;;;;;;;2.72;100.00;103691.34;5084888;28;20475;-44
2022/01/12 06:02:26;;;;;;;133.82;34.83;;;;;;;2.71;100.00;103691.41;5073568;28;20029;-43
2022/01/12 06:04:51;;;;;;;135.35;33.33;;;;;;;2.70;100.00;103703.81;5069333;28;20027;-42
2022/01/12 06:07:17;;;;;;;131.80;36.15;;;;;;;2.67;100.00;103703.94;5089740;28;20368;-42
2022/01/12 06:09:42;;;;;;;135.88;35.55;;;;;;;2.62;100.00;103704.13;5088185;28;20024;-42
2022/01/12 06:12:08;;;;;;;150.02;36.08;;;;;;;2.56;100.00;103716.81;5079114;28;20384;-43
2022/01/12 06:14:33;;;;;;;128.80;33.38;;;;;;;2.56;100.00;103727.44;5092471;28;20016;-43
2022/01/12 06:16:59;;;;;;;129.30;33.22;;;;;;;2.55;99.85;103726.56;5092720;28;20035;-43
2022/01/12 06:19:24;;;;;;;116.88;34.28;;;;;;;2.47;99.76;103725.97;5087180;28;20025;-43
2022/01/12 06:21:49;;;;;;;135.88;35.53;;;;;;;2.48;100.00;103724.22;5057097;28;20038;-43
2022/01/12 06:24:14;;;;;;;143.13;36.00;;;;;;;2.48;100.00;103724.22;5072213;28;20391;-44
2022/01/12 06:26:41;;;;;;;125.80;34.17;;;;;;;2.45;100.00;103726.97;5054964;28;20519;-44
2022/01/12 06:31:31;;;;;;;119.20;33.75;;;;;;;2.39;100.00;103736.03;5072839;28;20115;-42
2022/01/12 06:33:57;;;;;;;127.68;35.00;;;;;;;2.34;100.00;103738.88;5052298;28;20098;-44
2022/01/12 06:36:22;;;;;;;120.63;33.88;;;;;;;2.33;100.00;103736.28;5090866;28;20023;-45
2022/01/12 06:38:48;;;;;;;120.55;33.05;;;;;;;2.30;99.54;103739.91;5073809;28;20043;-44
2022/01/12 06:41:14;;;;;;;132.32;34.78;;;;;;;2.28;99.24;103743.56;5087581;28;20102;-43
2022/01/12 06:43:40;;;;;;;106.75;30.23;;;;;;;2.22;99.86;103746.44;5090713;28;20034;-45
2022/01/12 06:46:06;;;;;;;99.90;27.90;;;;;;;2.18;99.48;103745.66;5071352;28;20399;-45
2022/01/12 06:48:33;;;;;;;100.85;29.27;;;;;;;2.16;99.02;103755.50;5092115;28;20039;-44
2022/01/12 06:50:59;;;;;;;97.40;30.35;;;;;;;2.12;99.77;103757.38;5090853;28;20048;-45
2022/01/12 06:53:24;;;;;;;98.95;29.58;;;;;;;2.12;99.56;103767.16;5081048;28;20070;-44
2022/01/12 06:55:49;;;;;;;103.32;30.08;;;;;;;2.11;99.38;103770.75;5065185;28;20056;-44
2022/01/12 06:58:15;;;;;;;106.82;30.17;;;;;;;2.09;99.40;103775.25;5072071;28;20184;-44
2022/01/12 07:00:40;;;;;;;110.28;32.15;;;;;;;2.04;99.36;103782.50;5091564;28;20165;-44
2022/01/12 07:03:06;;;;;;;99.50;30.63;;;;;;;2.01;99.00;103788.78;5091289;28;20028;-45
2022/01/12 07:05:31;;;;;;;94.38;27.80;;;;;;;2.00;98.92;103791.50;5067362;28;20567;-43
2022/01/12 07:07:56;;;;;;;104.32;29.92;;;;;;;1.96;99.31;103791.59;5088055;28;20031;-43
2022/01/12 07:10:22;;;;;;;118.45;27.58;;;;;;;1.95;99.46;103787.22;5088662;28;20112;-44
2022/01/12 07:12:47;;;;;;;135.02;29.05;;;;;;;1.93;99.67;103791.72;5064753;28;20024;-44
2022/01/12 07:15:13;;;;;;;156.95;28.35;;;;;;;1.93;99.77;103789.06;5082414;28;20120;-44
2022/01/12 07:17:38;;;;;;;97.10;26.92;;;;;;;1.91;99.57;103788.22;5090898;28;20093;-44
2022/01/12 07:20:04;;;;;;;103.68;25.52;;;;;;;1.92;99.42;103786.44;5089804;28;20479;-44
2022/01/12 07:22:30;;;;;;;155.70;28.95;;;;;;;1.96;99.86;103780.97;5086788;28;20028;-45
2022/01/12 07:24:55;;;;;;;101.13;28.80;;;;;;;1.97;100.00;103777.41;5091432;28;20043;-44
2022/01/12 07:27:20;;;;;;;105.82;25.67;;;;;;;1.97;100.00;103782.72;5090592;28;20115;-45
2022/01/12 07:29:46;;;;;;;183.98;30.85;;;;;;;1.96;99.72;103786.28;5090890;28;20042;-44
2022/01/12 07:32:11;;;;;;;128.40;27.08;;;;;;;1.93;99.93;103783.75;5079737;28;20074;-44
2022/01/12 07:34:37;;;;;;;92.38;25.10;;;;;;;1.92;99.59;103794.41;5085715;28;20028;-46
2022/01/12 07:37:02;;;;;;;86.32;24.52;;;;;;;1.94;100.00;103797.88;5084202;28;20127;-46
2022/01/12 07:39:28;;;;;;;122.68;29.38;;;;;;;1.96;100.00;103802.22;5084236;28;20541;-45
2022/01/12 07:41:53;;;;;;;105.30;26.67;;;;;;;2.01;100.00;103798.56;5049996;28;20093;-44
2022/01/12 07:44:20;;;;;;;127.72;27.30;;;;;;;1.97;99.64;103798.66;5076031;28;20035;-45
2022/01/12 07:46:46;;;;;;;180.88;26.13;;;;;;;1.95;99.87;103800.50;5073267;28;20035;-44
2022/01/12 07:49:11;;;;;;;183.35;25.45;;;;;;;1.90;99.77;103802.44;5081460;28;20034;-45
2022/01/12 07:51:37;;;;;;;101.20;24.52;;;;;;;1.84;99.87;103807.94;5087872;28;20065;-45
2022/01/12 07:54:02;;;;;;;98.75;25.90;;;;;;;1.85;99.83;103812.34;5075879;28;20065;-45
2022/01/12 07:56:27;;;;;;;68.97;23.45;;;;;;;1.88;100.00;103827.31;5092038;28;20020;-45
2022/01/12 07:58:53;;;;;;;80.60;25.58;;;;;;;1.89;100.00;103832.56;5092001;28;20035;-44
2022/01/12 08:01:18;;;;;;;100.85;22.83;;;;;;;1.93;100.00;103834.22;5081473;28;20041;-43
2022/01/12 08:03:43;;;;;;;154.05;25.65;;;;;;;1.91;100.00;103838.69;5079068;28;20061;-43
2022/01/12 08:06:08;;;;;;;99.35;25.13;;;;;;;1.93;100.00;103844.84;5091454;28;20119;-45
2022/01/12 08:08:34;;;;;;;89.25;23.13;;;;;;;2.01;100.00;103846.38;5089211;28;20054;-45
2022/01/12 08:10:59;;;;;;;102.28;25.55;;;;;;;2.01;100.00;103849.03;5086857;28;20036;-43
2022/01/12 08:13:25;;;;;;;175.70;28.17;;;;;;;2.01;100.00;103852.53;5079270;28;20479;-45
2022/01/12 08:15:50;;;;;;;129.02;29.17;;;;;;;2.05;100.00;103854.16;5077723;28;20187;-45
2022/01/12 08:18:15;;;;;;;196.02;31.13;;;;;;;2.12;100.00;103857.50;5075232;28;20039;-43
2022/01/12 08:20:42;;;;;;;156.70;30.95;;;;;;;2.12;100.00;103854.84;5061199;28;20067;-45
2022/01/12 08:23:08;;;;;;;110.43;27.95;;;;;;;2.14;100.00;103858.31;5073567;28;20115;-43
2022/01/12 08:25:36;;;;;;;131.93;26.77;;;;;;;2.17;100.00;103858.19;5089669;28;20066;-44
2022/01/12 08:28:03;;;;;;;96.57;23.38;;;;;;;2.19;100.00;103869.66;5091379;28;20024;-44
2022/01/12 08:30:31;;;;;;;74.00;25.02;;;;;;;2.08;100.00;103869.13;5072395;28;20522;-45
2022/01/12 08:32:56;;;;;;;86.15;22.88;;;;;;;2.14;99.76;103879.56;5070888;28;20053;-44
2022/01/12 08:35:21;;;;;;;73.30;20.40;;;;;;;2.15;99.34;103878.63;5072729;28;20540;-44
2022/01/12 08:37:47;;;;;;;57.53;20.63;;;;;;;2.12;98.66;103881.41;5071650;28;20024;-45
2022/01/12 08:40:16;;;;;;;59.60;19.90;;;;;;;2.05;97.77;103890.50;5082970;28;20514;-45
2022/01/12 08:42:42;;;;;;;63.15;20.55;;;;;;;2.02;97.04;103891.47;5091159;28;20025;-46
2022/01/12 08:45:08;;;;;;;106.40;24.45;;;;;;;2.06;97.96;103892.25;5094400;28;20042;-45
2022/01/12 08:47:33;;;;;;;70.28;21.67;;;;;;;2.07;98.40;103888.66;5075674;28;20028;-45
2022/01/12 08:49:59;;;;;;;66.10;23.92;;;;;;;2.20;98.79;103895.28;5084213;28;20024;-43
2022/01/12 08:52:28;;;;;;;103.75;25.25;;;;;;;2.22;98.42;103888.16;5076623;28;20020;-45
2022/01/12 08:54:53;;;;;;;85.22;24.25;;;;;;;2.34;98.32;103900.13;5094373;28;20116;-45
2022/01/12 08:57:20;;;;;;;108.75;21.33;;;;;;;2.49;98.59;103893.41;5094834;28;20365;-45
2022/01/12 08:59:45;;;;;;;64.95;18.10;;;;;;;2.53;98.27;103900.38;5055720;28;20032;-44
2022/01/12 09:02:13;;;;;;;65.50;19.15;;;;;;;2.55;98.02;103909.13;5072213;28;20028;-44
2022/01/12 09:04:38;;;;;;;96.40;21.65;;;;;;;2.69;97.59;103909.53;5074582;28;20033;-44
2022/01/12 09:07:04;;;;;;;64.05;18.60;;;;;;;2.79;97.50;103915.38;5082483;28;20023;-43
2022/01/12 09:09:30;;;;;;;58.90;18.70;;;;;;;2.81;97.39;103924.16;5094404;28;20038;-44
2022/01/12 09:11:56;;;;;;;77.53;18.10;;;;;;;2.84;96.84;103932.03;5094031;28;20024;-44
2022/01/12 09:14:22;;;;;;;60.22;14.88;;;;;;;2.85;96.34;103933.78;5058589;28;20029;-46
2022/01/12 09:16:54;;;;;;;36.88;13.18;;;;;;;2.99;95.90;103935.94;5094549;28;20047;-45
2022/01/12 09:19:20;;;;;;;62.60;13.35;;;;;;;3.29;97.02;103945.44;5092825;28;20024;-45
2022/01/12 09:21:45;;;;;;;79.53;12.38;;;;;;;3.30;97.13;103955.16;5094314;28;20067;-44
2022/01/12 09:24:11;;;;;;;113.32;10.02;;;;;;;3.21;95.40;103959.94;5092908;28;20111;-44
2022/01/12 09:26:36;;;;;;;88.82;10.15;;;;;;;3.35;95.88;103967.44;5076058;28;20040;-45
2022/01/12 09:29:02;;;;;;;19.38;8.48;;;;;;;3.45;95.62;103968.78;5089787;28;20028;-45
2022/01/12 09:31:28;;;;;;;40.20;8.88;;;;;;;3.24;93.40;103968.72;5090103;28;20136;-44
2022/01/12 09:33:53;;;;;;;53.20;9.55;;;;;;;3.39;93.55;103969.03;5075447;28;20071;-44
2022/01/12 09:36:18;;;;;;;54.10;10.75;;;;;;;3.45;93.82;103968.78;5090567;28;20028;-45
2022/01/12 09:38:44;;;;;;;34.03;11.60;;;;;;;3.60;93.86;103967.34;5093937;28;20024;-45
2022/01/12 09:41:09;;;;;;;62.28;11.65;;;;;;;3.46;92.65;103963.44;5094064;28;20028;-46
2022/01/12 09:43:36;;;;;;;36.90;10.35;;;;;;;3.36;91.78;103975.34;5075097;28;20118;-44
2022/01/12 09:46:03;;;;;;;25.27;11.45;;;;;;;3.38;92.14;103980.63;5087460;28;20032;-45
2022/01/12 09:48:33;;;;;;;69.78;12.68;;;;;;;3.28;91.97;103978.28;5090110;28;20032;-46
2022/01/12 09:51:03;;;;;;;77.53;12.73;;;;;;;3.15;92.28;103985.00;5083833;28;20445;-44
2022/01/12 09:53:29;;;;;;;63.17;12.32;;;;;;;3.12;93.20;103987.78;5085411;28;20032;-45
2022/01/12 09:55:54;;;;;;;67.38;13.32;;;;;;;3.11;94.14;103986.06;5093229;28;20024;-44
2022/01/12 09:58:20;;;;;;;69.47;11.20;;;;;;;3.33;94.83;103990.59;5057987;28;20060;-44
2022/01/12 10:00:59;;;;;;;89.40;11.93;;;;;;;3.36;92.86;103986.00;5074163;28;20471;-42
2022/01/12 10:03:26;;;;;;;45.70;11.40;;;;;;;3.26;93.01;103980.13;5089771;28;20024;-43
2022/01/12 10:05:52;;;;;;;80.65;12.88;;;;;;;3.34;93.38;103992.31;5088212;28;20048;-44
2022/01/12 10:08:17;;;;;;;55.67;14.05;;;;;;;3.33;93.89;103986.13;5076480;28;20140;-44
2022/01/12 10:11:03;;;;;;;45.38;12.80;;;;;;;3.50;93.78;103991.69;5077491;28;20391;-43
2022/01/12 10:13:28;;;;;;;55.35;13.55;;;;;;;3.56;93.07;104003.03;5073002;28;20119;-44
2022/01/12 10:15:54;;;;;;;83.25;15.27;;;;;;;3.59;93.28;104014.44;5066045;28;20181;-43
2022/01/12 10:18:22;;;;;;;101.97;16.63;;;;;;;3.60;92.74;104013.50;5060124;28;20073;-43
2022/01/12 10:20:47;;;;;;;;;;;;;;;3.80;93.08;104003.88;5073376;28;20103;-43
2022/01/12 10:23:15;;;;;;;137.25;16.23;;;;;;;3.74;92.19;103999.66;5038275;28;19951;-44
2022/01/12 10:25:45;;;;;;;172.52;16.38;;;;;;;3.51;92.12;103997.88;5089293;28;20020;-43
2022/01/12 10:28:21;;;;;;;199.57;17.25;;;;;;;3.35;93.37;103997.59;5086879;28;20411;-44
2022/01/12 10:31:01;;;;;;;189.02;17.75;;;;;;;3.52;94.58;103991.63;5079785;28;20044;-43
2022/01/12 10:33:31;;;;;;;218.82;19.75;;;;;;;3.55;94.63;103979.97;5107240;28;20086;-43
2022/01/12 10:35:59;;;;;;;142.73;18.88;;;;;;;3.77;95.11;103988.03;5084343;28;20429;-44
2022/01/12 10:38:25;;;;;;;79.72;14.90;;;;;;;4.09;93.77;103992.91;5109517;28;20432;-44
2022/01/12 10:40:53;;;;;;;87.85;13.38;;;;;;;4.05;92.96;103980.63;5061101;28;20384;-44
2022/01/12 10:43:31;;;;;;;72.82;12.77;;;;;;;4.21;92.96;103993.34;5055192;28;20033;-44
2022/01/12 10:45:58;;;;;;;29.00;10.35;;;;;;;4.37;93.29;103995.34;5083172;28;20047;-44
2022/01/12 10:48:25;;;;;;;63.13;10.82;;;;;;;4.29;93.17;103991.22;5074313;28;20065;-45
2022/01/12 10:50:58;;;;;;;176.88;13.18;;;;;;;4.10;92.15;103991.97;5092660;28;20476;-44
2022/01/12 10:53:28;;;;;;;56.95;11.98;;;;;;;4.03;93.20;104001.19;5088286;28;20031;-44
2022/01/12 10:56:21;;;;;;;144.13;14.15;;;;;;;3.96;94.34;103999.69;5073950;28;20028;-44
2022/01/12 10:58:48;;;;;;;162.25;16.17;;;;;;;3.96;95.36;104007.66;5084986;28;20048;-46
2022/01/12 11:01:16;;;;;;;66.85;13.63;;;;;;;4.17;95.80;104004.13;5072425;28;20490;-44
2022/01/12 11:03:41;;;;;;;;;;;;;;;4.48;95.36;103989.53;5085899;28;20177;-44
2022/01/12 11:06:08;;;;;;;327.27;19.42;;;;;;;4.29;92.96;103986.78;5080177;28;19977;-43
2022/01/12 11:08:35;;;;;;;101.72;16.23;;;;;;;4.42;92.96;103983.59;5092293;28;20027;-45
2022/01/12 11:11:00;;;;;;;86.72;13.80;;;;;;;4.68;92.54;103983.34;5083139;28;20024;-44
2022/01/12 11:13:27;;;;;;;58.22;13.27;;;;;;;4.74;92.78;103984.88;5092156;28;20031;-42
2022/01/12 11:15:53;;;;;;;47.30;13.30;;;;;;;4.83;92.69;103984.47;5090987;28;20020;-42
2022/01/12 11:18:21;;;;;;;261.25;16.20;;;;;;;4.91;90.57;103978.81;5087659;28;20399;-44
2022/01/12 11:20:47;;;;;;;113.80;13.52;;;;;;;4.90;91.69;103980.63;5074165;28;20386;-42
2022/01/12 11:23:14;;;;;;;204.93;15.90;;;;;;;4.78;91.81;103970.47;5073819;28;20395;-43
2022/01/12 11:25:51;;;;;;;201.77;16.70;;;;;;;4.54;93.40;103961.75;5092290;28;20028;-44
2022/01/12 11:28:17;;;;;;;44.90;12.90;;;;;;;4.73;94.69;103969.81;5087527;28;20043;-43
2022/01/12 11:31:04;;;;;;;126.43;15.93;;;;;;;4.65;95.19;103967.47;5059881;28;20028;-42
2022/01/12 11:33:29;;;;;;;118.38;14.35;;;;;;;4.77;95.03;103960.75;5076579;28;20044;-45
2022/01/12 11:35:55;;;;;;;212.80;19.83;;;;;;;4.70;94.56;103957.47;5082753;28;20398;-45
2022/01/12 11:38:24;;;;;;;180.45;18.85;;;;;;;4.75;95.38;103943.94;5091991;28;20483;-42
2022/01/12 11:40:50;;;;;;;217.60;19.33;;;;;;;4.72;95.39;103954.75;5092018;28;20422;-43
2022/01/12 11:43:25;;;;;;;260.02;21.48;;;;;;;4.51;95.50;103952.06;5091642;28;20028;-44
2022/01/12 11:46:15;;;;;;;109.93;21.40;;;;;;;4.59;96.54;103955.28;5073333;28;20028;-45
2022/01/12 11:48:46;;;;;;;209.07;22.25;;;;;;;4.59;97.31;103949.06;5055406;28;20033;-45
2022/01/12 11:51:13;;;;;;;179.50;21.98;;;;;;;4.57;97.14;103969.59;5060592;28;20127;-44
2022/01/12 11:53:45;;;;;;;253.45;20.38;;;;;;;4.65;97.46;103961.28;5083235;28;20144;-44
2022/01/12 11:56:12;;;;;;;203.68;20.42;;;;;;;4.52;97.38;103959.13;5063701;28;20025;-44
2022/01/12 11:59:05;;;;;;;203.20;18.52;;;;;;;4.47;97.25;103955.78;5092077;28;20024;-44
2022/01/12 12:01:48;;;;;;;103.97;16.63;;;;;;;4.70;96.98;103944.13;5054813;28;20055;-44
2022/01/12 12:04:26;;;;;;;270.00;19.48;;;;;;;4.68;97.28;103939.78;5051375;28;20772;-43
2022/01/12 12:07:19;;;;;;;66.22;18.50;;;;;;;4.88;97.62;103933.59;5081439;28;20032;-45
2022/01/12 12:09:48;;;;;;;177.20;18.45;;;;;;;5.05;98.19;103939.91;5062921;28;20040;-44
2022/01/12 12:12:37;;;;;;;138.65;19.52;;;;;;;5.26;97.52;103945.16;5061140;28;20032;-44
2022/01/12 12:15:06;;;;;;;159.98;17.58;;;;;;;5.18;95.80;103942.00;5091151;28;20031;-45
2022/01/12 12:17:34;;;;;;;143.68;18.73;;;;;;;5.13;96.11;103934.19;5090257;28;20032;-44
2022/01/12 12:20:00;;;;;;;195.40;19.55;;;;;;;5.04;96.42;103929.28;5079739;28;20127;-46
2022/01/12 12:22:34;;;;;;;285.63;20.35;;;;;;;4.89;96.74;103930.81;5085043;28;20040;-44
2022/01/12 12:25:06;;;;;;;293.15;19.98;;;;;;;4.90;97.24;103927.25;5074764;28;20082;-43
2022/01/12 12:27:32;;;;;;;111.60;18.80;;;;;;;4.91;97.55;103931.63;5085486;28;20430;-44
2022/01/12 12:29:59;;;;;;;130.55;17.45;;;;;;;4.88;97.98;103921.09;5085717;28;20067;-44